Huntsville International Carl T Jones Field
KHSV : now visible

Airfield :











YOU CAN JOIN US ON...

 
LOGIN :

Register | Disclaimer

   EN    FR    IT 

 









Legend :    VFR   Marginal VFR   IFR   Intensive IFR   Very Intensive IFR
Visi :
Ceiling :
>= 8 km
>= 3000ft
5 to 8 km
1000 to 3000 ft
1500m to 5 km
500 to 1000 ft
800 to 1500m
200 to 500 ft
< 800m
< 200 ft
Symbols :   Thunderstorms  Fog  Heavy snow  Heavy precipitations  Wind > 20 kt







- Airport Elevation : 629 ft
- IATA code : HSV


KHSV - Huntsville International Carl T Jones Field

CURRENT METAR :
  • 190853Z AUTO 29003KT 10SM CLR 24/22 A2999 RMK AO2 SLP147 T02440217 53001 $

EXPIRED METARs :
  • 190753Z AUTO 23003KT 10SM CLR 23/22 A2998 RMK AO2 SLP144 T02330217 $
  • 190653Z AUTO 02004KT 10SM CLR 25/21 A2998 RMK AO2 SLP143 T02500211 $

TAF KHSV
Valid from the 19 at 06:00 until the 20 at 06:00 UTC


190520Z 1906/2006 VRB03KT P6SM FEW070 SCT150 BKN250
FM191600 22006KT P6SM SCT050 SCT100
FM200200 VRB03KT P6SM FEW070
No reported NOTAMs for that airfield.



MET'MAP, your aeronautical weather chart ! - Copyright ORBIFLY December 2007 - Disclaimer

ORBIFLY MET'MAP TEAM :

Programming & Development : Alexandra Zaïnal
Concept & Development : Baudouin d'Aumeries
Co-Development & Prog : Marc-Olivier Méhu
Technical & hardware support : Manuel Goepfert

Contact : metmap@orbifly.com




SOURCES & CREDITS :

   NOAA       Earth
Advisory